Time;durP1;ratioP1;P1;durP2;ratioP2;P2;SDS_P1;SDS_P2;PMS_P1;PMS_P2;Temp;Humidity;BMP_temperature;BMP_pressure;BME280_temperature;BME280_humidity;BME280_pressure;Samples;Min_cycle;Max_cycle;Signal;HPM_P1;HPM_P2
2023/06/12 00:00:47;;;;;;;88.60;62.58;;;22.90;69.70;;;;;;4975225;28;89535;-75
2023/06/12 00:03:13;;;;;;;89.00;62.30;;;22.90;70.20;;;;;;4977498;28;89503;-76
2023/06/12 00:05:43;;;;;;;89.40;62.58;;;22.90;70.20;;;;;;4980575;28;89760;-75
2023/06/12 00:08:09;;;;;;;90.55;62.97;;;22.90;70.30;;;;;;4975396;28;89656;-76
2023/06/12 00:10:35;;;;;;;82.90;57.28;;;22.90;70.70;;;;;;4978861;28;88781;-75
2023/06/12 00:13:01;;;;;;;91.03;64.07;;;22.80;71.10;;;;;;4982709;28;89777;-76
2023/06/12 00:15:26;;;;;;;85.70;59.78;;;22.90;70.70;;;;;;4981339;28;90179;-75
2023/06/12 00:17:52;;;;;;;90.25;61.28;;;22.80;70.50;;;;;;4978924;28;94249;-76
2023/06/12 00:20:18;;;;;;;87.43;60.80;;;22.80;70.80;;;;;;4975545;28;89893;-76
2023/06/12 00:22:44;;;;;;;86.38;60.58;;;22.80;70.60;;;;;;4972122;28;91123;-76
2023/06/12 00:25:10;;;;;;;87.60;61.78;;;22.80;71.20;;;;;;4978091;28;90420;-76
2023/06/12 00:27:35;;;;;;;88.18;62.22;;;22.70;70.60;;;;;;4978778;28;89961;-75
2023/06/12 00:30:02;;;;;;;83.53;58.00;;;22.70;70.50;;;;;;4978141;28;89745;-75
2023/06/12 00:32:28;;;;;;;86.38;59.90;;;22.70;71.60;;;;;;4975344;28;90615;-77
2023/06/12 00:34:54;;;;;;;87.05;60.83;;;22.70;70.80;;;;;;4977878;28;88861;-76
2023/06/12 00:37:24;;;;;;;89.05;62.08;;;22.70;71.60;;;;;;4975430;28;89810;-76
2023/06/12 00:39:50;;;;;;;86.72;59.85;;;22.70;71.40;;;;;;4963463;28;91836;-76
2023/06/12 00:42:16;;;;;;;84.78;59.00;;;22.70;71.10;;;;;;4974908;28;90400;-75
2023/06/12 00:44:41;;;;;;;87.18;60.80;;;22.70;71.20;;;;;;4979415;28;90159;-75
2023/06/12 00:47:09;;;;;;;83.65;58.25;;;22.70;71.70;;;;;;4977648;28;89388;-77
2023/06/12 00:49:35;;;;;;;87.70;60.90;;;22.70;72.10;;;;;;4973634;28;90418;-74
2023/06/12 00:52:01;;;;;;;84.45;59.78;;;22.70;72.80;;;;;;4982710;28;91164;-75
2023/06/12 00:54:28;;;;;;;86.43;61.35;;;22.60;71.90;;;;;;4983667;28;89747;-75
2023/06/12 00:56:55;;;;;;;87.22;60.33;;;22.60;71.90;;;;;;4978383;28;89817;-76
2023/06/12 00:59:21;;;;;;;84.68;58.63;;;22.60;72.30;;;;;;4982761;28;88767;-74
2023/06/12 01:01:46;;;;;;;84.95;58.90;;;22.60;72.40;;;;;;4977171;28;89896;-77
2023/06/12 01:04:12;;;;;;;84.93;59.08;;;22.60;72.50;;;;;;4973114;28;90084;-74
2023/06/12 01:06:54;;;;;;;88.57;61.53;;;22.60;72.50;;;;;;4969541;28;90502;-76
2023/06/12 01:09:42;;;;;;;83.35;58.78;;;22.50;72.20;;;;;;4972599;28;91357;-72
2023/06/12 01:12:10;;;;;;;84.18;58.72;;;22.60;72.10;;;;;;4975937;28;89966;-76
2023/06/12 01:14:35;;;;;;;85.10;59.97;;;22.50;72.70;;;;;;4979176;28;91523;-76
2023/06/12 01:17:02;;;;;;;84.88;59.45;;;22.50;72.60;;;;;;4977823;28;90239;-75
2023/06/12 01:19:28;;;;;;;84.72;58.55;;;22.50;72.70;;;;;;4970007;28;89769;-74
2023/06/12 01:21:58;;;;;;;85.18;58.58;;;22.50;73.10;;;;;;4973110;28;89993;-76
2023/06/12 01:24:49;;;;;;;83.70;58.90;;;22.50;72.50;;;;;;4972908;28;89406;-75
2023/06/12 01:27:22;;;;;;;;;;;22.50;73.10;;;;;;4972203;28;93031;-75
2023/06/12 01:29:56;;;;;;;82.65;57.85;;;22.50;73.40;;;;;;4971333;28;90918;-75
2023/06/12 01:32:24;;;;;;;84.25;59.13;;;22.40;73.40;;;;;;4978203;28;91391;-75
2023/06/12 01:35:03;;;;;;;84.70;58.63;;;22.50;73.10;;;;;;4975223;28;90453;-73
2023/06/12 01:37:53;;;;;;;83.82;58.63;;;22.40;72.60;;;;;;4976767;28;90360;-76
2023/06/12 01:40:19;;;;;;;83.35;58.60;;;22.40;73.50;;;;;;4973286;28;90326;-75
2023/06/12 01:42:46;;;;;;;84.72;57.75;;;22.40;72.70;;;;;;4969545;28;89968;-76
2023/06/12 01:45:11;;;;;;;85.32;59.13;;;22.30;72.90;;;;;;4972909;28;90252;-75
2023/06/12 01:47:37;;;;;;;82.90;57.97;;;22.30;72.70;;;;;;4974498;28;90046;-76
2023/06/12 01:50:04;;;;;;;86.53;60.58;;;22.30;74.20;;;;;;4971736;28;89158;-72
2023/06/12 01:52:32;;;;;;;82.32;57.90;;;22.30;72.50;;;;;;4975065;28;89803;-73
2023/06/12 01:54:58;;;;;;;84.18;58.83;;;22.30;74.20;;;;;;4975395;28;89959;-76
2023/06/12 01:57:24;;;;;;;83.80;58.55;;;22.30;73.90;;;;;;4979941;28;91270;-77
2023/06/12 01:59:53;;;;;;;83.93;58.53;;;22.30;73.70;;;;;;4981186;28;90724;-76
2023/06/12 02:02:18;;;;;;;84.70;58.33;;;22.30;73.80;;;;;;4983562;28;89432;-76
2023/06/12 02:04:44;;;;;;;83.55;57.85;;;22.20;74.30;;;;;;4976544;28;89510;-76
2023/06/12 02:07:10;;;;;;;84.32;58.50;;;22.20;74.80;;;;;;4970778;28;89677;-76
2023/06/12 02:09:35;;;;;;;86.70;59.55;;;22.20;74.50;;;;;;4974182;28;89957;-76
2023/06/12 02:12:01;;;;;;;84.93;59.13;;;22.20;74.20;;;;;;4974304;28;89657;-75
2023/06/12 02:14:27;;;;;;;83.03;58.63;;;22.10;75.60;;;;;;4971225;28;89376;-76
2023/06/12 02:16:53;;;;;;;83.75;58.55;;;22.10;74.20;;;;;;4978935;28;89703;-77
2023/06/12 02:19:25;;;;;;;84.32;59.40;;;22.10;74.70;;;;;;4975400;28;91244;-75
2023/06/12 02:21:54;;;;;;;83.70;58.95;;;22.20;75.10;;;;;;4973545;28;94568;-73
2023/06/12 02:24:22;;;;;;;84.40;58.35;;;22.10;73.20;;;;;;4979498;28;90401;-74
2023/06/12 02:26:48;;;;;;;83.95;58.97;;;22.10;75.10;;;;;;4975506;28;90483;-75
2023/06/12 02:29:14;;;;;;;85.68;59.47;;;22.10;74.40;;;;;;4981512;28;90559;-75
2023/06/12 02:31:40;;;;;;;84.70;60.20;;;22.00;75.50;;;;;;4973741;28;90000;-74
2023/06/12 02:34:06;;;;;;;84.88;59.40;;;22.10;74.90;;;;;;4976986;28;89554;-74
2023/06/12 02:36:33;;;;;;;86.57;59.30;;;22.00;74.20;;;;;;4980071;28;89408;-75
2023/06/12 02:39:01;;;;;;;85.93;60.00;;;22.00;75.70;;;;;;4979121;28;89927;-75
2023/06/12 02:41:27;;;;;;;82.13;57.92;;;22.00;74.70;;;;;;4976292;28;89599;-76
2023/06/12 02:43:53;;;;;;;84.93;59.40;;;22.00;76.00;;;;;;4976877;28;89512;-76
2023/06/12 02:46:18;;;;;;;85.88;60.00;;;22.00;75.50;;;;;;4977204;28;90395;-76
2023/06/12 02:48:44;;;;;;;86.30;60.05;;;22.00;75.90;;;;;;4974763;28;90919;-74
2023/06/12 02:51:09;;;;;;;86.72;60.28;;;21.90;74.80;;;;;;4968693;28;91209;-76
2023/06/12 02:53:35;;;;;;;83.75;58.97;;;21.80;74.00;;;;;;4977744;28;89529;-74
2023/06/12 02:56:01;;;;;;;85.38;60.28;;;21.80;75.80;;;;;;4980713;28;89562;-76
2023/06/12 02:58:27;;;;;;;87.18;59.88;;;21.80;76.50;;;;;;4981806;28;90167;-76
2023/06/12 03:00:53;;;;;;;84.35;59.15;;;21.80;75.90;;;;;;4976357;28;89371;-77
2023/06/12 03:03:20;;;;;;;85.80;60.97;;;21.90;75.10;;;;;;4981320;28;88547;-76
2023/06/12 03:05:46;;;;;;;84.05;58.95;;;21.80;76.00;;;;;;4980766;28;89447;-77
2023/06/12 03:08:16;;;;;;;87.40;59.97;;;21.80;76.80;;;;;;4981225;28;89326;-77
2023/06/12 03:10:42;;;;;;;85.22;59.88;;;21.80;77.00;;;;;;4979055;28;90495;-74
2023/06/12 03:13:08;;;;;;;86.97;61.15;;;21.80;76.20;;;;;;4976611;28;89466;-76
2023/06/12 03:15:34;;;;;;;85.72;60.65;;;21.80;75.50;;;;;;4980847;28;89571;-75
2023/06/12 03:18:00;;;;;;;86.95;60.38;;;21.80;75.50;;;;;;4976499;28;90372;-75
2023/06/12 03:20:26;;;;;;;85.35;59.65;;;21.80;76.70;;;;;;4981243;28;89509;-76
2023/06/12 03:23:02;;;;;;;87.90;62.25;;;21.70;74.30;;;;;;4977928;28;89710;-75
2023/06/12 03:25:27;;;;;;;88.35;61.60;;;21.70;75.90;;;;;;4979896;28;91358;-76
2023/06/12 03:27:53;;;;;;;85.35;59.97;;;21.70;76.80;;;;;;4978921;28;89968;-75
2023/06/12 03:30:19;;;;;;;85.80;59.38;;;21.70;76.50;;;;;;4978170;28;89664;-75
2023/06/12 03:32:45;;;;;;;84.15;60.53;;;21.70;76.80;;;;;;4983674;28;89442;-76
2023/06/12 03:35:12;;;;;;;85.68;60.58;;;21.70;76.80;;;;;;4975535;28;90669;-74
2023/06/12 03:37:37;;;;;;;87.03;60.28;;;21.60;77.50;;;;;;4972137;28;90715;-75
2023/06/12 03:40:04;;;;;;;84.90;60.40;;;21.70;77.20;;;;;;4978954;28;89517;-75
2023/06/12 03:42:30;;;;;;;83.70;59.72;;;21.70;77.60;;;;;;4974532;28;90172;-75
2023/06/12 03:44:56;;;;;;;83.95;59.38;;;21.60;75.50;;;;;;4974643;28;89963;-74
2023/06/12 03:47:22;;;;;;;85.43;60.97;;;21.60;77.80;;;;;;4979911;28;89826;-75
2023/06/12 03:49:47;;;;;;;86.63;61.65;;;21.60;75.80;;;;;;4973631;28;89885;-76
2023/06/12 03:52:13;;;;;;;85.25;60.47;;;21.60;77.30;;;;;;4975428;28;90829;-75
2023/06/12 03:54:39;;;;;;;86.68;61.03;;;21.60;75.80;;;;;;4983572;28;90565;-75
2023/06/12 03:57:05;;;;;;;85.18;59.25;;;21.60;76.60;;;;;;4982368;28;89501;-75
2023/06/12 03:59:31;;;;;;;83.35;58.47;;;21.60;76.50;;;;;;4976317;28;91659;-76
2023/06/12 04:01:58;;;;;;;85.45;60.35;;;21.60;77.10;;;;;;4966602;28;90472;-73
2023/06/12 04:04:24;;;;;;;85.05;60.63;;;21.50;76.80;;;;;;4970234;28;90639;-72
2023/06/12 04:06:50;;;;;;;85.90;60.35;;;21.50;77.30;;;;;;4979272;28;89535;-73
2023/06/12 04:09:16;;;;;;;85.95;59.75;;;21.50;76.20;;;;;;4967547;28;90107;-74
2023/06/12 04:11:43;;;;;;;85.80;59.92;;;21.50;76.70;;;;;;4985234;28;90485;-75
2023/06/12 04:14:08;;;;;;;86.47;59.60;;;21.50;76.40;;;;;;4977075;28;89445;-75
2023/06/12 04:16:34;;;;;;;85.60;59.72;;;21.50;75.80;;;;;;4978733;28;88681;-74
2023/06/12 04:19:03;;;;;;;86.10;59.42;;;21.50;77.10;;;;;;4974146;28;90897;-74
2023/06/12 04:21:30;;;;;;;86.75;60.15;;;21.50;76.80;;;;;;4979738;28;89489;-75
2023/06/12 04:23:56;;;;;;;87.35;59.75;;;21.50;75.80;;;;;;4985675;28;90885;-76
2023/06/12 04:26:24;;;;;;;85.80;60.65;;;21.50;74.70;;;;;;4977649;28;91085;-75
2023/06/12 04:28:49;;;;;;;86.43;59.83;;;21.50;73.50;;;;;;4978873;28;89510;-75
2023/06/12 04:31:16;;;;;;;84.75;59.47;;;21.50;75.80;;;;;;4983416;28;90039;-76
2023/06/12 04:33:41;;;;;;;85.55;59.08;;;21.50;75.40;;;;;;4982932;28;90114;-76
2023/06/12 04:36:13;;;;;;;85.35;60.00;;;21.50;76.00;;;;;;4978155;28;89667;-74
2023/06/12 04:38:39;;;;;;;85.32;59.72;;;21.50;75.20;;;;;;4979081;28;90242;-73
2023/06/12 04:41:05;;;;;;;85.93;59.22;;;21.60;75.10;;;;;;4982654;28;89304;-76
2023/06/12 04:43:31;;;;;;;85.15;60.03;;;21.60;74.40;;;;;;4979619;28;91044;-76
2023/06/12 04:45:57;;;;;;;85.28;59.58;;;21.60;73.80;;;;;;4971470;28;90276;-72
2023/06/12 04:48:23;;;;;;;90.45;62.63;;;21.60;77.40;;;;;;4979386;28;90034;-73
2023/06/12 04:50:51;;;;;;;101.32;74.55;;;21.70;78.00;;;;;;4981535;28;89435;-74
2023/06/12 04:53:17;;;;;;;111.57;77.45;;;21.70;78.50;;;;;;4981466;28;89938;-74
2023/06/12 04:55:50;;;;;;;112.53;80.97;;;21.70;78.40;;;;;;4985986;28;90142;-74
2023/06/12 04:58:18;;;;;;;113.50;82.00;;;21.70;77.60;;;;;;4979781;28;90242;-72
2023/06/12 05:00:47;;;;;;;114.88;82.97;;;21.70;78.60;;;;;;4978712;28;90142;-72
2023/06/12 05:03:17;;;;;;;115.40;82.97;;;21.70;79.20;;;;;;4972588;28;93050;-75
2023/06/12 05:05:46;;;;;;;117.32;84.53;;;21.70;79.60;;;;;;4982749;28;89206;-74
2023/06/12 05:08:11;;;;;;;114.60;82.25;;;21.70;79.20;;;;;;4978292;28;89962;-74
2023/06/12 05:10:37;;;;;;;115.05;81.47;;;21.70;78.70;;;;;;4970679;28;90173;-74
2023/06/12 05:13:03;;;;;;;115.40;82.13;;;21.70;79.40;;;;;;4972395;28;90625;-74
2023/06/12 05:15:29;;;;;;;112.22;79.75;;;21.70;78.10;;;;;;4976224;28;91289;-76
2023/06/12 05:17:55;;;;;;;111.65;82.53;;;21.70;78.80;;;;;;4976915;28;89239;-76
2023/06/12 05:20:21;;;;;;;112.55;80.30;;;21.70;80.00;;;;;;4980378;28;89912;-72
2023/06/12 05:22:47;;;;;;;113.32;81.70;;;21.80;79.30;;;;;;4975763;28;92441;-73
2023/06/12 05:25:15;;;;;;;113.93;81.10;;;21.80;79.90;;;;;;4975434;28;90308;-73
2023/06/12 05:27:41;;;;;;;116.60;81.85;;;21.80;79.70;;;;;;4979992;28;89458;-74
2023/06/12 05:30:07;;;;;;;112.72;82.55;;;21.80;80.20;;;;;;4981636;28;88756;-73
2023/06/12 05:32:34;;;;;;;111.65;82.70;;;21.80;80.50;;;;;;4978658;28;92842;-73
2023/06/12 05:35:00;;;;;;;122.63;81.35;;;21.90;80.60;;;;;;4981566;28;94860;-75
2023/06/12 05:37:26;;;;;;;107.20;74.57;;;21.90;80.30;;;;;;4975197;28;89973;-72
2023/06/12 05:39:53;;;;;;;112.78;80.53;;;21.90;76.90;;;;;;4975700;28;89438;-75
2023/06/12 05:42:19;;;;;;;109.38;74.28;;;21.90;80.40;;;;;;4968398;28;89520;-72
2023/06/12 05:44:46;;;;;;;107.30;75.70;;;21.90;77.70;;;;;;4950976;22;91233;-49
2023/06/12 05:47:15;;;;;;;105.93;70.88;;;21.90;75.70;;;;;;4931105;28;89680;-53
2023/06/12 05:49:41;;;;;;;111.88;74.55;;;21.90;73.90;;;;;;4939101;28;89410;-57
2023/06/12 05:52:07;;;;;;;110.63;75.63;;;21.90;74.00;;;;;;4944622;28;90069;-56
2023/06/12 05:54:36;;;;;;;108.43;75.80;;;21.90;77.60;;;;;;4937785;28;91100;-38
2023/06/12 05:57:02;;;;;;;101.40;71.90;;;22.00;75.70;;;;;;4946793;28;90048;-38
2023/06/12 05:59:28;;;;;;;103.38;72.05;;;22.00;75.40;;;;;;4941564;28;89891;-38
2023/06/12 06:01:55;;;;;;;110.35;73.88;;;22.00;73.20;;;;;;4938733;28;91233;-38
2023/06/12 06:04:21;;;;;;;103.50;72.13;;;22.00;74.10;;;;;;4937141;28;89909;-38
2023/06/12 06:06:47;;;;;;;107.28;72.75;;;22.10;77.30;;;;;;4942631;28;90581;-38
2023/06/12 06:09:16;;;;;;;104.30;71.57;;;22.10;74.00;;;;;;4946150;28;89567;-38
2023/06/12 06:11:42;;;;;;;96.30;68.45;;;22.10;74.90;;;;;;4936675;28;89744;-38
2023/06/12 06:14:07;;;;;;;103.95;71.32;;;22.20;72.00;;;;;;4941283;28;89326;-37
2023/06/12 06:16:33;;;;;;;108.03;70.82;;;22.20;73.20;;;;;;4941511;28;90123;-38
2023/06/12 06:18:59;;;;;;;101.65;70.65;;;22.20;71.80;;;;;;4945315;28;89458;-41
2023/06/12 06:21:24;;;;;;;100.57;70.07;;;22.20;73.90;;;;;;4940282;28;89661;-38
2023/06/12 06:23:50;;;;;;;101.05;68.97;;;22.20;72.10;;;;;;4938981;28;90556;-40
2023/06/12 06:26:16;;;;;;;99.95;68.03;;;22.30;74.80;;;;;;4936157;28;92310;-38
2023/06/12 06:28:41;;;;;;;98.13;66.45;;;22.30;78.40;;;;;;4941684;28;89557;-39
2023/06/12 06:31:07;;;;;;;99.93;67.40;;;22.40;74.60;;;;;;4944638;28;89537;-37
2023/06/12 06:33:33;;;;;;;96.18;66.18;;;22.40;76.90;;;;;;4942632;28;90871;-37
2023/06/12 06:35:58;;;;;;;97.90;68.88;;;22.40;73.40;;;;;;4944118;28;89950;-40
2023/06/12 06:38:25;;;;;;;93.05;65.57;;;22.40;71.40;;;;;;4944777;28;89493;-38
2023/06/12 06:40:51;;;;;;;97.47;66.80;;;22.50;71.30;;;;;;4938402;28;91979;-38
2023/06/12 06:43:17;;;;;;;99.00;68.05;;;22.50;71.40;;;;;;4959043;28;89859;-41
2023/06/12 06:45:43;;;;;;;97.70;68.60;;;22.50;71.30;;;;;;4984574;28;89485;-37
2023/06/12 06:48:11;;;;;;;95.95;67.38;;;22.50;71.70;;;;;;4981724;28;90871;-38
2023/06/12 06:50:37;;;;;;;94.55;64.95;;;22.50;71.50;;;;;;4978225;28;91440;-37
2023/06/12 06:53:03;;;;;;;96.95;63.97;;;22.60;74.90;;;;;;4976277;28;91125;-38
2023/06/12 06:55:29;;;;;;;92.93;63.67;;;22.60;75.30;;;;;;4982811;28;90236;-39
2023/06/12 06:57:55;;;;;;;93.45;63.13;;;22.70;76.00;;;;;;4981261;28;89697;-38
2023/06/12 07:00:25;;;;;;;91.50;63.17;;;22.70;76.40;;;;;;4966571;28;91599;-38
2023/06/12 07:02:50;;;;;;;94.63;66.00;;;22.70;75.80;;;;;;4979164;28;89518;-38
2023/06/12 07:05:16;;;;;;;89.85;63.17;;;22.70;70.80;;;;;;4984714;28;89520;-54
2023/06/12 07:07:45;;;;;;;95.07;63.03;;;22.80;74.80;;;;;;4981054;28;88860;-52
2023/06/12 07:10:11;;;;;;;89.38;62.17;;;22.80;74.50;;;;;;4981680;28;90634;-50
2023/06/12 07:12:36;;;;;;;91.18;61.85;;;22.80;74.30;;;;;;4983465;28;90469;-53
2023/06/12 07:15:03;;;;;;;90.95;62.92;;;22.90;73.80;;;;;;4983526;28;90897;-46
2023/06/12 07:17:29;;;;;;;92.68;62.78;;;22.90;74.90;;;;;;4982711;28;89730;-51
2023/06/12 07:19:55;;;;;;;92.38;62.80;;;22.90;74.50;;;;;;4981216;28;89088;-55
2023/06/12 07:22:20;;;;;;;89.28;61.88;;;22.90;74.90;;;;;;4983772;28;89462;-54
2023/06/12 07:24:46;;;;;;;90.68;62.35;;;23.00;74.20;;;;;;4982812;28;89694;-53
2023/06/12 07:27:12;;;;;;;92.78;62.78;;;23.00;75.10;;;;;;4985713;28;89551;-53
2023/06/12 07:29:37;;;;;;;91.22;61.88;;;23.10;74.60;;;;;;4985659;28;90020;-52
2023/06/12 07:32:04;;;;;;;94.55;61.60;;;23.10;73.00;;;;;;4981204;28;89742;-55
2023/06/12 07:34:29;;;;;;;90.25;61.80;;;23.10;74.50;;;;;;4979917;28;89567;-56
2023/06/12 07:36:56;;;;;;;90.05;62.35;;;23.10;74.50;;;;;;4981055;28;90090;-51
2023/06/12 07:39:21;;;;;;;88.10;62.00;;;23.20;70.90;;;;;;4978963;28;90863;-55
2023/06/12 07:41:47;;;;;;;88.55;61.30;;;23.10;73.10;;;;;;4980846;28;90020;-50
2023/06/12 07:44:13;;;;;;;90.68;62.42;;;23.20;74.70;;;;;;4979797;28;89650;-54
2023/06/12 07:46:42;;;;;;;91.25;61.97;;;23.20;74.80;;;;;;4983078;28;90348;-48
2023/06/12 07:49:07;;;;;;;88.50;61.20;;;23.20;74.00;;;;;;4985418;28;89516;-54
2023/06/12 07:51:33;;;;;;;90.03;63.75;;;23.20;70.60;;;;;;4981894;28;90378;-50
2023/06/12 07:53:59;;;;;;;90.70;62.30;;;23.20;69.20;;;;;;4985365;28;90850;-55
2023/06/12 07:56:25;;;;;;;90.63;61.80;;;23.30;72.70;;;;;;4984593;28;88903;-52
2023/06/12 07:58:51;;;;;;;89.28;61.92;;;23.30;71.50;;;;;;4980179;28;90352;-54
2023/06/12 08:01:17;;;;;;;89.97;63.45;;;23.30;71.00;;;;;;4980998;28;89942;-43
2023/06/12 08:03:43;;;;;;;92.03;62.25;;;23.40;70.90;;;;;;4979191;28;91354;-54
2023/06/12 08:06:10;;;;;;;89.15;61.53;;;23.40;70.60;;;;;;4979682;28;90007;-51
2023/06/12 08:08:48;;;;;;;89.55;64.22;;;23.40;74.60;;;;;;4978086;28;90003;-53
2023/06/12 08:11:15;;;;;;;91.80;62.88;;;23.50;69.40;;;;;;4980731;28;90115;-51
2023/06/12 08:13:41;;;;;;;93.95;65.85;;;23.50;70.80;;;;;;4978731;28;89499;-54
2023/06/12 08:16:08;;;;;;;92.80;66.28;;;23.50;69.10;;;;;;4983234;28;89828;-54
2023/06/12 08:18:33;;;;;;;88.45;61.90;;;23.60;70.30;;;;;;4981948;28;90047;-53
2023/06/12 08:20:59;;;;;;;89.57;62.35;;;23.60;73.20;;;;;;4965181;28;91447;-53
2023/06/12 08:23:25;;;;;;;88.93;61.92;;;23.70;73.90;;;;;;4981509;28;89624;-42
2023/06/12 08:25:50;;;;;;;91.75;62.30;;;23.70;74.20;;;;;;4982059;28;89537;-51
2023/06/12 08:28:16;;;;;;;89.80;62.40;;;23.70;72.10;;;;;;4983024;28;92027;-51
2023/06/12 08:30:42;;;;;;;88.63;62.08;;;23.80;72.30;;;;;;4978147;28;92059;-49
2023/06/12 08:33:08;;;;;;;91.50;63.42;;;23.80;74.10;;;;;;4981111;28;91401;-53
2023/06/12 08:35:34;;;;;;;90.43;62.22;;;23.80;70.20;;;;;;4982717;28;89601;-53
2023/06/12 08:38:01;;;;;;;90.00;62.85;;;23.90;73.40;;;;;;4979075;28;90711;-55
2023/06/12 08:40:26;;;;;;;87.97;61.83;;;23.90;70.80;;;;;;4984490;28;89898;-57
2023/06/12 08:42:52;;;;;;;88.55;62.20;;;23.90;70.40;;;;;;4981645;28;89665;-53
2023/06/12 08:45:25;;;;;;;89.75;61.65;;;24.00;72.40;;;;;;4982933;28;89797;-54
2023/06/12 08:47:52;;;;;;;93.82;62.00;;;24.00;72.20;;;;;;4984507;28;90200;-56
2023/06/12 08:50:18;;;;;;;85.80;59.85;;;24.00;72.10;;;;;;4979804;28;89607;-57
2023/06/12 08:52:46;;;;;;;89.68;61.58;;;24.10;69.80;;;;;;4975433;28;90372;-52
2023/06/12 08:55:15;;;;;;;89.60;62.10;;;24.10;71.80;;;;;;4981262;28;89519;-54
2023/06/12 08:57:42;;;;;;;89.85;61.40;;;24.20;72.50;;;;;;4983042;28;90902;-51
2023/06/12 09:00:15;;;;;;;90.53;61.28;;;24.20;71.40;;;;;;4977907;28;90856;-45
2023/06/12 09:02:46;;;;;;;89.38;61.42;;;24.20;71.10;;;;;;4974792;28;89686;-56
2023/06/12 09:05:19;;;;;;;88.15;61.75;;;24.30;71.10;;;;;;4981095;28;89681;-53
2023/06/12 09:07:47;;;;;;;88.38;60.50;;;24.40;70.70;;;;;;4976576;28;89941;-57
2023/06/12 09:10:16;;;;;;;89.38;62.00;;;24.40;69.50;;;;;;4979869;28;88926;-55
2023/06/12 09:12:44;;;;;;;88.28;61.58;;;24.40;69.60;;;;;;4980597;28;90481;-55
2023/06/12 09:15:20;;;;;;;88.35;59.95;;;24.40;69.60;;;;;;4977382;28;89541;-54
2023/06/12 09:17:55;;;;;;;88.45;61.25;;;24.50;68.60;;;;;;4980986;28;91190;-53
2023/06/12 09:20:26;;;;;;;88.60;61.22;;;24.50;68.90;;;;;;4972673;28;90784;-50
2023/06/12 09:22:52;;;;;;;88.00;61.80;;;24.50;68.40;;;;;;4974832;28;89413;-52
2023/06/12 09:25:21;;;;;;;92.82;64.10;;;24.60;67.10;;;;;;4984272;28;89764;-47
2023/06/12 09:27:47;;;;;;;89.45;60.85;;;24.60;68.00;;;;;;4979049;28;90736;-54
2023/06/12 09:30:13;;;;;;;89.82;61.40;;;24.70;68.40;;;;;;4975602;28;92754;-55
2023/06/12 09:32:44;;;;;;;89.88;61.38;;;24.70;68.30;;;;;;4980297;28;90378;-57
2023/06/12 09:35:12;;;;;;;89.13;61.13;;;24.70;68.10;;;;;;4982647;28;89279;-52
2023/06/12 09:37:39;;;;;;;87.93;60.95;;;24.70;67.90;;;;;;4982302;28;90597;-53
2023/06/12 09:40:15;;;;;;;88.15;61.22;;;24.80;68.60;;;;;;4983807;28;89827;-51
2023/06/12 09:42:42;;;;;;;87.35;60.70;;;24.80;67.60;;;;;;4979033;28;90498;-55
2023/06/12 09:45:12;;;;;;;89.15;61.67;;;24.80;67.40;;;;;;4978233;28;89599;-54
2023/06/12 09:47:48;;;;;;;89.13;61.30;;;24.90;67.30;;;;;;4981332;28;91022;-55
2023/06/12 09:50:19;;;;;;;87.30;61.03;;;24.90;67.10;;;;;;4977894;28;89478;-56
2023/06/12 09:52:48;;;;;;;89.22;60.75;;;25.00;66.90;;;;;;4982626;28;90989;-56
2023/06/12 09:55:17;;;;;;;88.13;60.83;;;25.00;66.80;;;;;;4983061;28;89352;-53
2023/06/12 09:57:47;;;;;;;88.07;61.13;;;25.00;66.60;;;;;;4986392;28;90673;-57
2023/06/12 10:00:16;;;;;;;87.13;60.70;;;25.10;66.40;;;;;;4958522;28;89998;-55
2023/06/12 10:03:05;;;;;;;87.78;60.95;;;25.10;66.30;;;;;;4964083;28;91302;-52
2023/06/12 10:05:35;;;;;;;89.18;61.20;;;25.10;66.00;;;;;;4975166;28;90054;-50
2023/06/12 10:08:03;;;;;;;87.65;60.70;;;25.10;65.90;;;;;;4980394;28;90711;-46
2023/06/12 10:10:33;;;;;;;86.88;60.05;;;25.20;65.90;;;;;;4978701;28;90204;-57
2023/06/12 10:13:01;;;;;;;87.13;60.75;;;25.20;65.60;;;;;;4978640;28;90828;-50
2023/06/12 10:15:29;;;;;;;87.65;60.92;;;25.30;65.40;;;;;;4976081;28;91856;-55
2023/06/12 10:17:55;;;;;;;89.15;61.00;;;25.30;65.30;;;;;;4977557;28;89851;-54
2023/06/12 10:20:23;;;;;;;87.28;61.13;;;25.30;65.20;;;;;;4962376;28;91057;-53
2023/06/12 10:22:51;;;;;;;86.93;60.67;;;25.30;65.10;;;;;;4979885;28;89736;-56
2023/06/12 10:25:17;;;;;;;87.13;60.90;;;25.40;65.00;;;;;;4980971;28;89104;-52
2023/06/12 10:27:43;;;;;;;89.13;60.85;;;25.40;64.90;;;;;;4963724;28;90225;-55
2023/06/12 10:30:11;;;;;;;88.07;60.83;;;25.40;64.80;;;;;;4976401;28;89817;-56
2023/06/12 10:32:38;;;;;;;88.88;60.38;;;25.40;64.70;;;;;;4978166;28;90531;-57
2023/06/12 10:35:04;;;;;;;88.90;60.85;;;25.50;64.60;;;;;;4980559;28;89682;-51
2023/06/12 10:37:38;;;;;;;88.28;60.55;;;25.50;64.40;;;;;;4981148;28;91082;-55
2023/06/12 10:40:15;;;;;;;86.88;60.53;;;25.50;64.30;;;;;;4982603;28;90509;-47
2023/06/12 10:42:51;;;;;;;87.63;60.63;;;25.60;64.20;;;;;;4978377;28;89591;-57
2023/06/12 10:45:31;;;;;;;87.72;61.15;;;25.60;64.00;;;;;;4973865;28;89606;-54
2023/06/12 10:48:05;;;;;;;89.57;60.90;;;25.60;63.80;;;;;;4976115;28;91067;-48
2023/06/12 10:50:36;;;;;;;86.63;60.33;;;25.60;63.70;;;;;;4969504;28;89282;-50
2023/06/12 10:53:07;;;;;;;88.50;60.72;;;25.70;63.70;;;;;;4976009;28;91077;-50
2023/06/12 10:55:35;;;;;;;88.30;60.42;;;25.70;63.60;;;;;;4977484;28;90117;-55
2023/06/12 10:58:03;;;;;;;87.85;60.75;;;25.70;63.50;;;;;;4976065;28;93787;-52
2023/06/12 11:00:35;;;;;;;87.88;60.45;;;25.80;64.10;;;;;;4975107;28;91591;-57
2023/06/12 11:03:12;;;;;;;89.20;60.53;;;25.80;63.30;;;;;;4980809;28;89793;-50
2023/06/12 11:05:39;;;;;;;89.00;60.97;;;25.80;63.10;;;;;;4978096;28;89921;-57
2023/06/12 11:08:09;;;;;;;87.63;60.38;;;25.80;62.80;;;;;;4979216;28;91349;-55
2023/06/12 11:10:35;;;;;;;87.60;61.00;;;25.80;62.70;;;;;;4977577;28;89877;-53
2023/06/12 11:13:02;;;;;;;87.38;60.60;;;25.90;62.50;;;;;;4982264;28;89502;-56
2023/06/12 11:15:31;;;;;;;87.78;60.20;;;25.90;62.40;;;;;;4976565;28;88759;-50
2023/06/12 11:17:56;;;;;;;87.97;60.90;;;25.90;62.10;;;;;;4985027;28;90321;-54
2023/06/12 11:20:23;;;;;;;88.78;61.35;;;26.00;62.30;;;;;;4978189;28;89927;-56
2023/06/12 11:22:57;;;;;;;87.80;60.72;;;26.00;62.10;;;;;;4978060;28;90787;-58
2023/06/12 11:25:25;;;;;;;87.55;60.60;;;26.00;61.80;;;;;;4981132;28;92611;-55
2023/06/12 11:27:52;;;;;;;88.57;60.72;;;26.00;61.60;;;;;;4986080;28;90072;-47
2023/06/12 11:30:18;;;;;;;86.85;60.67;;;26.00;61.60;;;;;;4981785;28;89609;-56
2023/06/12 11:32:43;;;;;;;86.72;60.13;;;26.00;61.20;;;;;;4986635;28;89691;-56
2023/06/12 11:35:11;;;;;;;88.90;60.67;;;26.10;61.20;;;;;;4982667;28;90403;-53
2023/06/12 11:37:38;;;;;;;87.00;60.05;;;26.10;61.00;;;;;;4980589;28;91164;-50
2023/06/12 11:40:11;;;;;;;86.80;60.13;;;26.10;60.70;;;;;;4988090;28;89055;-50
2023/06/12 11:42:41;;;;;;;85.90;60.10;;;26.20;60.60;;;;;;4983590;28;89555;-54
2023/06/12 11:45:08;;;;;;;86.97;60.23;;;26.20;60.40;;;;;;4979925;28;89774;-52
2023/06/12 11:47:38;;;;;;;87.65;60.45;;;26.20;60.40;;;;;;4977658;28;91216;-54
2023/06/12 11:50:05;;;;;;;86.35;60.33;;;26.20;60.30;;;;;;4984659;28;91032;-52
2023/06/12 11:52:33;;;;;;;88.20;60.22;;;26.20;60.90;;;;;;4966204;28;90134;-46
2023/06/12 11:55:01;;;;;;;86.60;60.03;;;26.30;60.00;;;;;;4982051;28;90577;-58
2023/06/12 11:57:27;;;;;;;87.32;60.20;;;26.30;59.90;;;;;;4963156;28;91469;-57
2023/06/12 11:59:56;;;;;;;87.35;60.33;;;26.30;59.80;;;;;;4981076;28;89959;-56
2023/06/12 12:02:34;;;;;;;87.40;60.25;;;26.30;59.70;;;;;;4981500;28;89867;-54
2023/06/12 12:05:04;;;;;;;89.55;60.05;;;26.30;59.50;;;;;;4984783;28;88746;-51
2023/06/12 12:07:31;;;;;;;86.43;59.93;;;26.40;59.50;;;;;;4981929;28;90616;-57
2023/06/12 12:10:04;;;;;;;86.60;60.03;;;26.40;59.40;;;;;;4982460;28;89867;-56
2023/06/12 12:12:44;;;;;;;88.22;59.92;;;26.40;59.20;;;;;;4965761;28;90916;-57
2023/06/12 12:15:11;;;;;;;87.47;60.03;;;26.40;59.10;;;;;;4977118;28;90770;-57
2023/06/12 12:17:40;;;;;;;86.32;60.28;;;26.50;59.10;;;;;;4980712;28;90517;-55
2023/06/12 12:20:17;;;;;;;87.90;60.20;;;26.50;58.90;;;;;;4980261;28;90184;-57
2023/06/12 12:22:45;;;;;;;86.07;59.95;;;26.50;58.70;;;;;;4984760;28;89597;-52
2023/06/12 12:25:23;;;;;;;87.70;60.05;;;26.50;58.70;;;;;;4967895;28;89867;-54
2023/06/12 12:27:51;;;;;;;87.60;60.28;;;26.60;58.60;;;;;;4984612;28;89969;-54